Time;durP1;ratioP1;P1;durP2;ratioP2;P2;SDS_P1;SDS_P2;PMS_P1;PMS_P2;Temp;Humidity;BMP_temperature;BMP_pressure;BME280_temperature;BME280_humidity;BME280_pressure;Samples;Min_cycle;Max_cycle;Signal;HPM_P1;HPM_P2
2022/03/13 00:02:15;;;;;;;;;;;;;;;-1.28;62.02;100118.88;4912410;29;19963;-66
2022/03/13 00:04:42;;;;;;;;;;;;;;;-1.29;62.31;100114.63;4918096;29;19927;-67
2022/03/13 00:07:19;;;;;;;;;;;;;;;-1.15;61.86;100118.53;4917360;29;19931;-68
2022/03/13 00:09:48;;;;;;;;;;;;;;;-0.99;61.55;100115.31;4917383;29;19964;-63
2022/03/13 00:12:15;;;;;;;;;;;;;;;-1.01;61.59;100119.84;4917137;29;19979;-63
2022/03/13 00:14:44;;;;;;;;;;;;;;;-1.02;62.53;100115.63;4913556;29;19930;-62
2022/03/13 00:17:11;;;;;;;;;;;;;;;-1.01;63.10;100110.25;4914377;29;20349;-64
2022/03/13 00:19:38;;;;;;;;;;;;;;;-1.22;62.32;100110.50;4913536;29;19950;-63
2022/03/13 00:22:04;;;;;;;;;;;;;;;-1.32;63.59;100109.72;4897784;29;19932;-69
2022/03/13 00:24:31;;;;;;;;;;;;;;;-1.20;62.68;100112.97;4894081;29;19927;-64
2022/03/13 00:26:56;;;;;;;;;;;;;;;-1.16;62.49;100115.13;4911450;29;19938;-66
2022/03/13 00:29:22;;;;;;;;;;;;;;;-1.20;62.88;100116.38;4897205;29;19927;-66
2022/03/13 00:31:48;;;;;;;;;;;;;;;-1.15;62.87;100115.94;4902615;29;19978;-67
2022/03/13 00:34:14;;;;;;;;;;;;;;;-1.10;63.21;100107.69;4914730;29;20428;-66
2022/03/13 00:36:40;;;;;;;;;;;;;;;-1.11;62.77;100108.69;4932132;29;20487;-66
2022/03/13 00:39:06;;;;;;;;;;;;;;;-1.12;62.93;100107.84;4917163;29;19951;-67
2022/03/13 00:41:31;;;;;;;;;;;;;;;-1.20;62.90;100098.16;4903791;29;19928;-65
2022/03/13 00:43:57;;;;;;;;;;;;;;;-1.22;62.99;100100.09;4901636;29;19963;-67
2022/03/13 00:46:23;;;;;;;;;;;;;;;-1.09;63.32;100101.53;4896724;29;19928;-68
2022/03/13 00:48:48;;;;;;;;;;;;;;;-1.15;62.63;100103.75;4897347;29;19994;-64
2022/03/13 00:51:15;;;;;;;;;;;;;;;-1.32;61.63;100114.91;4897111;29;19928;-66
2022/03/13 00:53:41;;;;;;;;;;;;;;;-1.33;61.71;100105.47;4897189;29;19939;-67
2022/03/13 00:56:07;;;;;;;;;;;;;;;-1.31;61.38;100103.53;4898455;29;19927;-65
2022/03/13 00:58:32;;;;;;;;;;;;;;;-1.35;61.77;100107.41;4897749;29;19931;-65
2022/03/13 01:00:59;;;;;;;;;;;;;;;-1.26;62.37;100110.94;4904587;29;19932;-63
2022/03/13 01:03:30;;;;;;;;;;;;;;;-1.24;62.28;100116.78;4899863;29;19953;-64
2022/03/13 01:05:55;;;;;;;;;;;;;;;-1.36;62.91;100118.75;4915721;29;19931;-64
2022/03/13 01:08:21;;;;;;;;;;;;;;;-1.37;63.13;100115.34;4915946;29;19931;-68
2022/03/13 01:10:49;;;;;;;;;;;;;;;-1.35;62.94;100128.22;4898893;29;19966;-67
2022/03/13 01:13:15;;;;;;;;;;;;;;;-1.31;62.46;100126.97;4881011;29;19939;-65
2022/03/13 01:15:43;;;;;;;;;;;;;;;-1.41;62.64;100120.97;4897967;29;19927;-65
2022/03/13 01:18:10;;;;;;;;;;;;;;;-1.37;62.95;100120.53;4897758;29;20467;-64
2022/03/13 01:20:35;;;;;;;;;;;;;;;-1.27;62.41;100122.28;4896265;29;19927;-64
2022/03/13 01:23:01;;;;;;;;;;;;;;;-1.17;62.09;100123.91;4896681;29;20029;-64
2022/03/13 01:25:27;;;;;;;;;;;;;;;-1.23;61.46;100132.28;4898533;29;20403;-64
2022/03/13 01:27:57;;;;;;;;;;;;;;;-1.46;61.96;100126.59;4914807;29;19931;-67
2022/03/13 01:30:23;;;;;;;;;;;;;;;-1.45;63.01;100132.59;4897415;29;20031;-67
2022/03/13 01:32:51;;;;;;;;;;;;;;;-1.34;62.82;100135.03;4904543;29;20316;-68
2022/03/13 01:35:20;;;;;;;;;;;;;;;-1.32;62.25;100130.53;4914857;29;19926;-67
2022/03/13 01:37:46;;;;;;;;;;;;;;;-1.33;61.62;100131.47;4916130;29;19974;-66
2022/03/13 01:40:19;;;;;;;;;;;;;;;-1.24;61.03;100128.00;4902638;29;19927;-67
2022/03/13 01:42:45;;;;;;;;;;;;;;;-1.31;60.73;100137.34;4896361;29;19979;-63
2022/03/13 01:45:11;;;;;;;;;;;;;;;-1.37;60.40;100132.72;4901903;29;19967;-63
2022/03/13 01:47:37;;;;;;;;;;;;;;;-1.29;60.31;100129.44;4899145;29;20025;-63
2022/03/13 01:50:04;;;;;;;;;;;;;;;-1.45;60.96;100130.00;4883427;29;20029;-64
2022/03/13 01:52:29;;;;;;;;;;;;;;;-1.41;61.02;100128.78;4914574;29;19985;-64
2022/03/13 01:54:56;;;;;;;;;;;;;;;-1.34;61.14;100123.81;4915844;29;19959;-63
2022/03/13 01:57:21;;;;;;;;;;;;;;;-1.47;61.67;100130.16;4916020;29;20357;-64
2022/03/13 01:59:49;;;;;;;;;;;;;;;-1.40;61.22;100120.00;4915663;29;19927;-64
2022/03/13 02:02:15;;;;;;;;;;;;;;;-1.36;61.25;100126.56;4915742;29;20014;-65
2022/03/13 02:04:41;;;;;;;;;;;;;;;-1.27;61.12;100125.69;4905078;29;19935;-64
2022/03/13 02:07:06;;;;;;;;;;;;;;;-1.25;60.67;100134.19;4880227;29;19931;-64
2022/03/13 02:09:33;;;;;;;;;;;;;;;-1.35;60.72;100137.78;4902349;29;19927;-64
2022/03/13 02:12:00;;;;;;;;;;;;;;;-1.41;60.85;100139.19;4915786;29;19931;-64
2022/03/13 02:14:28;;;;;;;;;;;;;;;-1.29;60.54;100135.44;4915601;29;19926;-68
2022/03/13 02:16:53;;;;;;;;;;;;;;;-1.35;60.43;100136.00;4915741;29;19938;-69
2022/03/13 02:19:19;;;;;;;;;;;;;;;-1.55;61.29;100135.25;4914549;29;19927;-67
2022/03/13 02:21:55;;;;;;;;;;;;;;;-1.62;61.10;100137.59;4915758;29;20017;-67
2022/03/13 02:24:23;;;;;;;;;;;;;;;-1.63;61.27;100148.13;4898950;29;19967;-71
2022/03/13 02:26:58;;;;;;;;;;;;;;;-1.69;61.14;100144.28;4897198;29;20019;-69
2022/03/13 02:29:24;;;;;;;;;;;;;;;-1.72;61.78;100152.38;4895495;29;19932;-69
2022/03/13 02:31:50;;;;;;;;;;;;;;;-1.76;61.39;100148.44;4864311;29;19947;-68
2022/03/13 02:34:18;;;;;;;;;;;;;;;-1.75;61.97;100155.25;4895457;29;19928;-66
2022/03/13 02:36:43;;;;;;;;;;;;;;;-1.71;61.51;100151.41;4899172;29;19927;-65
2022/03/13 02:39:10;;;;;;;;;;;;;;;-1.78;61.48;100158.13;4915789;29;19954;-67
2022/03/13 02:41:36;;;;;;;;;;;;;;;-1.88;62.05;100162.53;4916646;29;19927;-67
2022/03/13 02:44:02;;;;;;;;;;;;;;;-1.97;62.51;100163.31;4896612;29;19931;-67
2022/03/13 02:46:46;;;;;;;;;;;;;;;-1.92;62.31;100168.94;4896129;29;19927;-67
2022/03/13 02:49:12;;;;;;;;;;;;;;;-1.97;62.85;100171.13;4896663;29;19954;-68
2022/03/13 02:51:38;;;;;;;;;;;;;;;-1.90;62.43;100170.44;4915500;29;20297;-69
2022/03/13 02:54:05;;;;;;;;;;;;;;;-1.99;62.32;100170.47;4913779;29;20008;-66
2022/03/13 02:56:30;;;;;;;;;;;;;;;-1.97;62.79;100173.72;4915377;29;20026;-68
2022/03/13 02:58:56;;;;;;;;;;;;;;;-2.06;62.45;100171.00;4915027;29;19931;-66
2022/03/13 03:01:21;;;;;;;;;;;;;;;-2.03;62.90;100166.47;4904641;29;20304;-66
2022/03/13 03:03:48;;;;;;;;;;;;;;;-2.04;63.03;100168.25;4896709;29;19939;-67
2022/03/13 03:06:13;;;;;;;;;;;;;;;-1.99;62.24;100163.47;4896290;29;19934;-68
2022/03/13 03:08:39;;;;;;;;;;;;;;;-1.94;62.32;100163.91;4864026;29;20369;-69
2022/03/13 03:11:05;;;;;;;;;;;;;;;-1.91;61.91;100160.19;4879466;29;19927;-68
2022/03/13 03:13:31;;;;;;;;;;;;;;;-1.94;62.03;100160.47;4882599;29;19931;-69
2022/03/13 03:15:56;;;;;;;;;;;;;;;-2.04;62.18;100151.84;4898578;29;19927;-70
2022/03/13 03:18:25;;;;;;;;;;;;;;;-2.11;62.59;100149.81;4898869;29;20025;-70
2022/03/13 03:20:51;;;;;;;;;;;;;;;-1.99;62.08;100145.28;4898292;29;19927;-69
2022/03/13 03:23:19;;;;;;;;;;;;;;;-1.90;62.06;100139.28;4900213;29;19935;-69
2022/03/13 03:25:45;;;;;;;;;;;;;;;-1.94;61.97;100140.50;4898458;29;20071;-68
2022/03/13 03:28:12;;;;;;;;;;;;;;;-1.89;61.88;100146.09;4899759;29;19931;-69
2022/03/13 03:30:38;;;;;;;;;;;;;;;-1.84;61.75;100149.09;4882558;29;19935;-71
2022/03/13 03:33:04;;;;;;;;;;;;;;;-1.78;61.43;100150.34;4898645;29;19931;-69
2022/03/13 03:35:31;;;;;;;;;;;;;;;-1.74;61.68;100140.47;4899423;29;19992;-71
2022/03/13 03:37:56;;;;;;;;;;;;;;;-1.72;61.68;100136.78;4899849;29;19931;-69
2022/03/13 03:40:26;;;;;;;;;;;;;;;-1.68;61.56;100140.72;4882780;29;19927;-68
2022/03/13 03:42:55;;;;;;;;;;;;;;;-1.64;61.48;100136.09;4866969;29;20047;-68
2022/03/13 03:45:20;;;;;;;;;;;;;;;-1.52;61.42;100128.94;4914035;29;19935;-67
2022/03/13 03:47:46;;;;;;;;;;;;;;;-1.39;61.08;100137.25;4899263;29;20338;-69
2022/03/13 03:50:13;;;;;;;;;;;;;;;-1.42;60.75;100132.31;4899408;29;19934;-68
2022/03/13 03:52:39;;;;;;;;;;;;;;;-1.35;60.95;100135.16;4897827;29;20022;-66
2022/03/13 03:55:05;;;;;;;;;;;;;;;-1.29;60.95;100130.25;4899068;29;20026;-70
2022/03/13 03:57:31;;;;;;;;;;;;;;;-1.28;60.87;100131.88;4897766;29;19931;-68
2022/03/13 03:59:56;;;;;;;;;;;;;;;-1.21;60.79;100134.72;4897884;29;19927;-70
2022/03/13 04:02:22;;;;;;;;;;;;;;;-1.21;60.53;100117.31;4879713;29;19931;-69
2022/03/13 04:04:47;;;;;;;;;;;;;;;-1.04;60.27;100133.16;4899259;29;20026;-67
2022/03/13 04:07:13;;;;;;;;;;;;;;;-1.01;60.02;100131.06;4898810;29;19931;-68
2022/03/13 04:09:40;;;;;;;;;;;;;;;-1.01;60.23;100128.47;4899093;29;20406;-69
2022/03/13 04:12:07;;;;;;;;;;;;;;;-1.00;60.44;100127.53;4898496;29;19942;-67
2022/03/13 04:14:34;;;;;;;;;;;;;;;-0.95;60.37;100127.88;4898548;29;19927;-67
2022/03/13 04:16:59;;;;;;;;;;;;;;;-0.87;60.32;100134.16;4882046;29;19931;-69
2022/03/13 04:19:27;;;;;;;;;;;;;;;-0.79;60.11;100136.88;4898702;29;20429;-68
2022/03/13 04:21:53;;;;;;;;;;;;;;;-0.74;60.22;100129.41;4898823;29;20464;-67
2022/03/13 04:24:19;;;;;;;;;;;;;;;-0.74;60.19;100132.84;4897768;29;20022;-68
2022/03/13 04:26:44;;;;;;;;;;;;;;;-0.77;60.40;100130.53;4898056;29;20309;-66
2022/03/13 04:29:10;;;;;;;;;;;;;;;-0.82;60.54;100137.97;4881917;29;19975;-65
2022/03/13 04:31:37;;;;;;;;;;;;;;;-0.81;60.75;100134.41;4903281;29;19927;-67
2022/03/13 04:34:04;;;;;;;;;;;;;;;-0.74;60.63;100135.44;4917898;29;19931;-68
2022/03/13 04:36:32;;;;;;;;;;;;;;;-0.67;60.16;100130.50;4916001;29;19927;-67
2022/03/13 04:38:59;;;;;;;;;;;;;;;-0.62;60.10;100135.25;4917346;29;20041;-66
2022/03/13 04:41:25;;;;;;;;;;;;;;;-0.62;59.86;100130.03;4900258;29;19927;-66
2022/03/13 04:43:53;;;;;;;;;;;;;;;-0.56;59.92;100125.09;4898845;29;19938;-68
2022/03/13 04:46:18;;;;;;;;;;;;;;;-0.61;59.84;100135.13;4898561;29;19927;-66
2022/03/13 04:48:44;;;;;;;;;;;;;;;-0.52;59.81;100141.22;4897845;29;19942;-69
2022/03/13 04:51:09;;;;;;;;;;;;;;;-0.56;59.73;100137.25;4904594;29;19931;-68
2022/03/13 04:53:35;;;;;;;;;;;;;;;-0.52;59.49;100136.00;4916793;29;19938;-68
2022/03/13 04:56:00;;;;;;;;;;;;;;;-0.44;59.70;100137.88;4916108;29;19971;-68
2022/03/13 04:58:26;;;;;;;;;;;;;;;-0.42;59.46;100136.75;4898059;29;19939;-67
2022/03/13 05:00:52;;;;;;;;;;;;;;;-0.37;59.09;100142.34;4896936;29;19930;-67
2022/03/13 05:03:18;;;;;;;;;;;;;;;-0.38;59.47;100143.31;4896655;29;19932;-68
2022/03/13 05:05:44;;;;;;;;;;;;;;;-0.31;58.95;100141.75;4898300;29;20278;-67
2022/03/13 05:08:13;;;;;;;;;;;;;;;-0.32;58.94;100139.31;4896481;29;19932;-68
2022/03/13 05:10:40;;;;;;;;;;;;;;;-0.26;59.28;100133.50;4898018;29;20026;-66
2022/03/13 05:13:07;;;;;;;;;;;;;;;-0.20;58.93;100132.91;4896761;29;19938;-67
2022/03/13 05:15:33;;;;;;;;;;;;;;;-0.17;59.05;100142.22;4892990;29;19936;-68
2022/03/13 05:17:58;;;;;;;;;;;;;;;-0.17;59.15;100140.44;4893365;29;19931;-67
2022/03/13 05:20:24;;;;;;;;;;;;;;;-0.14;58.79;100147.94;4911235;29;20340;-68
2022/03/13 05:22:50;;;;;;;;;;;;;;;-0.04;58.39;100153.06;4899532;29;20463;-67
2022/03/13 05:25:15;;;;;;;;;;;;;;;0.03;58.56;100154.13;4899411;29;20009;-65
2022/03/13 05:27:41;;;;;;;;;;;;;;;0.11;58.28;100150.75;4899558;29;19931;-68
2022/03/13 05:30:08;;;;;;;;;;;;;;;0.11;58.06;100151.56;4914425;29;19982;-69
2022/03/13 05:32:35;;;;;;;;;;;;;;;0.16;58.11;100145.91;4915821;29;19977;-65
2022/03/13 05:35:02;;;;;;;;;;;;;;;0.23;57.71;100147.72;4915545;29;19942;-64
2022/03/13 05:37:28;;;;;;;;;;;;;;;0.33;57.47;100154.69;4915471;29;20464;-67
2022/03/13 05:39:54;;;;;;;;;;;;;;;0.15;57.96;100158.13;4909319;29;19927;-66
2022/03/13 05:42:24;;;;;;;;;;;;;;;0.24;58.61;100161.63;4916132;29;20373;-69
2022/03/13 05:44:53;;;;;;;;;;;;;;;0.31;57.78;100167.03;4915763;29;19979;-68
2022/03/13 05:47:18;;;;;;;;;;;;;;;0.35;58.08;100171.78;4898697;29;20374;-64
2022/03/13 05:49:45;;;;;;;;;;;;;;;0.43;58.36;100171.03;4911260;29;20049;-62
2022/03/13 05:52:13;;;;;;;;;;;;;;;0.44;58.32;100168.28;4913889;29;20399;-61
2022/03/13 05:54:39;;;;;;;;;;;;;;;0.51;57.56;100171.09;4908142;29;20033;-61
2022/03/13 05:57:06;;;;;;;;;;;;;;;0.57;57.48;100165.25;4916226;29;19982;-60
2022/03/13 05:59:33;;;;;;;;;;;;;;;0.63;57.54;100175.09;4915122;29;19927;-60
2022/03/13 06:02:00;;;;;;;;;;;;;;;0.70;57.52;100177.88;4914349;29;20405;-61
2022/03/13 06:04:26;;;;;;;;;;;;;;;0.69;57.32;100176.25;4897904;29;19927;-59
2022/03/13 06:06:52;;;;;;;;;;;;;;;0.60;57.73;100178.00;4915597;29;19937;-61
2022/03/13 06:09:17;;;;;;;;;;;;;;;0.50;57.36;100184.28;4914833;29;20297;-62
2022/03/13 06:11:43;;;;;;;;;;;;;;;0.33;58.45;100172.94;4916021;29;20397;-62
2022/03/13 06:14:08;;;;;;;;;;;;;;;0.30;58.39;100175.84;4915030;29;19943;-63
2022/03/13 06:16:35;;;;;;;;;;;;;;;0.28;57.96;100172.56;4913369;29;20441;-66
2022/03/13 06:19:00;;;;;;;;;;;;;;;0.25;58.11;100178.88;4914092;29;19966;-63
2022/03/13 06:21:25;;;;;;;;;;;;;;;0.41;57.91;100179.03;4904155;29;19977;-61
2022/03/13 06:23:51;;;;;;;;;;;;;;;0.42;57.75;100175.44;4908799;29;20316;-61
2022/03/13 06:26:17;;;;;;;;;;;;;;;0.58;57.56;100166.88;4915075;29;19927;-61
2022/03/13 06:28:42;;;;;;;;;;;;;;;0.79;57.57;100163.91;4909963;29;19931;-62
2022/03/13 06:31:12;;;;;;;;;;;;;;;0.97;56.35;100156.03;4902032;29;20508;-62
2022/03/13 06:33:38;;;;;;;;;;;;;;;1.18;56.21;100150.41;4899583;29;19931;-66
2022/03/13 06:36:04;;;;;;;;;;;;;;;1.34;55.32;100162.69;4898605;29;19950;-70
2022/03/13 06:38:30;;;;;;;;;;;;;;;1.51;54.72;100150.50;4895064;29;20401;-65
2022/03/13 06:40:55;;;;;;;;;;;;;;;1.63;54.86;100148.41;4899625;29;20315;-65
2022/03/13 06:43:21;;;;;;;;;;;;;;;1.69;54.77;100143.34;4913957;29;20419;-63
2022/03/13 06:45:46;;;;;;;;;;;;;;;1.91;54.10;100141.06;4902698;29;19927;-60
2022/03/13 06:48:14;;;;;;;;;;;;;;;2.11;53.23;100158.06;4900268;29;19939;-63
2022/03/13 06:50:39;;;;;;;;;;;;;;;2.27;52.45;100160.69;4903858;29;19938;-65
2022/03/13 06:53:10;;;;;;;;;;;;;;;2.42;52.72;100158.25;4917184;29;19923;-60
2022/03/13 06:55:41;;;;;;;;;;;;;;;2.58;52.07;100151.34;4878736;29;19927;-63
2022/03/13 06:58:06;;;;;;;;;;;;;;;2.51;51.75;100145.97;4899846;29;19980;-61
2022/03/13 07:00:32;;;;;;;;;;;;;;;2.39;52.76;100147.28;4899742;29;19928;-63
2022/03/13 07:02:57;;;;;;;;;;;;;;;2.50;52.44;100149.56;4900119;29;19931;-63
2022/03/13 07:05:24;;;;;;;;;;;;;;;2.55;52.13;100152.47;4899216;29;19928;-62
2022/03/13 07:07:50;;;;;;;;;;;;;;;2.62;52.12;100150.03;4899692;29;19932;-62
2022/03/13 07:10:15;;;;;;;;;;;;;;;2.73;51.54;100141.81;4899371;29;19928;-63
2022/03/13 07:12:44;;;;;;;;;;;;;;;2.85;51.47;100143.06;4898505;29;20030;-64
2022/03/13 07:15:12;;;;;;;;;;;;;;;2.96;51.27;100145.34;4887771;29;20423;-62
2022/03/13 07:17:38;;;;;;;;;;;;;;;3.09;51.04;100139.56;4899964;29;19932;-61
2022/03/13 07:20:05;;;;;;;;;;;;;;;3.20;50.74;100130.50;4899740;29;19927;-61
2022/03/13 07:22:31;;;;;;;;;;;;;;;3.20;50.70;100130.50;4899721;29;19931;-63
2022/03/13 07:24:57;;;;;;;;;;;;;;;3.33;50.53;100133.41;4899630;29;19928;-62
2022/03/13 07:27:23;;;;;;;;;;;;;;;3.38;50.35;100130.25;4898356;29;19931;-64
2022/03/13 07:29:50;;;;;;;;;;;;;;;3.44;50.29;100134.78;4867220;29;20357;-62
2022/03/13 07:32:15;;;;;;;;;;;;;;;3.41;50.27;100132.53;4899954;29;19931;-61
2022/03/13 07:34:41;;;;;;;;;;;;;;;3.43;50.22;100138.41;4898059;29;20461;-61
2022/03/13 07:37:10;;;;;;;;;;;;;;;3.41;50.41;100143.00;4867234;29;20025;-63
2022/03/13 07:39:36;;;;;;;;;;;;;;;3.44;50.30;100155.75;4882533;29;20332;-63
2022/03/13 07:42:03;;;;;;;;;;;;;;;3.23;50.31;100156.34;4898253;29;19931;-63
2022/03/13 07:44:29;;;;;;;;;;;;;;;3.02;50.80;100158.75;4897953;29;19971;-61
2022/03/13 07:46:55;;;;;;;;;;;;;;;3.00;51.12;100150.22;4882060;29;20416;-62
2022/03/13 07:49:20;;;;;;;;;;;;;;;3.11;51.04;100153.31;4899544;29;19927;-62
2022/03/13 07:51:47;;;;;;;;;;;;;;;3.32;50.70;100142.22;4899589;29;19927;-64
2022/03/13 07:54:13;;;;;;;;;;;;;;;3.31;50.98;100164.19;4898068;29;19932;-62
2022/03/13 07:56:38;;;;;;;;;;;;;;;3.27;50.58;100167.34;4898600;29;19983;-62
2022/03/13 07:59:04;;;;;;;;;;;;;;;3.14;51.06;100166.06;4898809;29;19979;-61
2022/03/13 08:01:30;;;;;;;;;;;;;;;3.17;51.05;100170.94;4897554;29;20231;-62
2022/03/13 08:03:56;;;;;;;;;;;;;;;3.24;51.22;100170.31;4897915;29;20344;-62
2022/03/13 08:06:21;;;;;;;;;;;;;;;3.35;51.03;100168.13;4899023;29;19927;-63
2022/03/13 08:08:47;;;;;;;;;;;;;;;3.64;50.30;100164.81;4882520;29;19942;-62
2022/03/13 08:11:12;;;;;;;;;;;;;;;3.92;49.36;100168.78;4897170;29;20413;-62
2022/03/13 08:13:38;;;;;;;;;;;;;;;3.72;49.70;100163.97;4866587;29;19932;-62
2022/03/13 08:16:04;;;;;;;;;;;;;;;3.71;50.07;100154.47;4881946;29;19990;-63
2022/03/13 08:18:30;;;;;;;;;;;;;;;3.68;49.97;100157.44;4898846;29;19987;-62
2022/03/13 08:20:56;;;;;;;;;;;;;;;3.71;50.24;100156.28;4898925;29;19927;-61
2022/03/13 08:23:22;;;;;;;;;;;;;;;3.94;49.51;100161.53;4897584;29;19932;-61
2022/03/13 08:25:47;;;;;;;;;;;;;;;3.80;49.61;100148.19;4897415;29;20309;-60
2022/03/13 08:28:13;;;;;;;;;;;;;;;4.10;49.38;100151.72;4898641;29;19932;-67
2022/03/13 08:30:39;;;;;;;;;;;;;;;4.49;48.14;100150.72;4897052;29;19963;-64
2022/03/13 08:33:05;;;;;;;;;;;;;;;4.58;48.12;100142.78;4897171;29;19931;-67
2022/03/13 08:35:30;;;;;;;;;;;;;;;4.67;47.27;100145.13;4898607;29;19927;-64
2022/03/13 08:37:56;;;;;;;;;;;;;;;4.69;47.28;100139.72;4897411;29;20401;-64
2022/03/13 08:40:25;;;;;;;;;;;;;;;4.58;48.23;100140.97;4898568;29;19982;-64
2022/03/13 08:42:51;;;;;;;;;;;;;;;4.45;48.43;100141.59;4897004;29;20033;-64
2022/03/13 08:45:16;;;;;;;;;;;;;;;4.74;47.73;100140.00;4898357;29;19927;-63
2022/03/13 08:47:42;;;;;;;;;;;;;;;5.02;46.78;100132.25;4897956;29;19931;-63
2022/03/13 08:50:08;;;;;;;;;;;;;;;5.09;46.79;100133.19;4898255;29;19991;-64
2022/03/13 08:52:35;;;;;;;;;;;;;;;5.18;47.02;100132.06;4898063;29;19932;-62
2022/03/13 08:55:01;;;;;;;;;;;;;;;5.17;46.44;100127.81;4897207;29;20385;-62
2022/03/13 08:57:26;;;;;;;;;;;;;;;5.15;46.72;100123.75;4896670;29;19931;-65
2022/03/13 08:59:53;;;;;;;;;;;;;;;5.21;46.13;100129.09;4865691;29;19927;-65
2022/03/13 09:02:21;;;;;;;;;;;;;;;5.29;46.21;100128.13;4871446;29;19964;-64
2022/03/13 09:04:46;;;;;;;;;;;;;;;5.15;46.85;100129.81;4889671;29;19927;-62
2022/03/13 09:07:12;;;;;;;;;;;;;;;5.20;46.39;100124.81;4908019;29;19939;-61
2022/03/13 09:09:39;;;;;;;;;;;;;;;5.37;46.46;100124.59;4906368;29;19931;-62
2022/03/13 09:12:06;;;;;;;;;;;;;;;5.53;45.55;100121.75;4906512;29;19994;-63
2022/03/13 09:14:35;;;;;;;;;;;;;;;5.42;46.08;100130.94;4906375;29;19935;-65
2022/03/13 09:17:01;;;;;;;;;;;;;;;5.39;46.65;100125.25;4907557;29;19931;-64
2022/03/13 09:19:27;;;;;;;;;;;;;;;5.16;46.61;100118.28;4905225;29;19927;-63
2022/03/13 09:21:53;;;;;;;;;;;;;;;5.21;47.17;100123.81;4907039;29;19938;-64
2022/03/13 09:24:18;;;;;;;;;;;;;;;5.04;47.62;100117.13;4906910;29;20001;-64
2022/03/13 09:26:45;;;;;;;;;;;;;;;5.17;46.99;100116.47;4916546;29;19935;-62
2022/03/13 09:29:10;;;;;;;;;;;;;;;4.89;47.20;100119.78;4916666;29;19937;-66
2022/03/13 09:31:36;;;;;;;;;;;;;;;4.76;47.47;100112.56;4911513;29;19927;-64
2022/03/13 09:34:02;;;;;;;;;;;;;;;4.87;48.34;100115.69;4897492;29;19966;-63
2022/03/13 09:36:28;;;;;;;;;;;;;;;4.69;48.31;100110.81;4897433;29;20030;-64
2022/03/13 09:38:53;;;;;;;;;;;;;;;4.60;48.17;100112.72;4897458;29;20382;-65
2022/03/13 09:41:19;;;;;;;;;;;;;;;4.45;47.88;100101.41;4897590;29;19931;-64
2022/03/13 09:43:45;;;;;;;;;;;;;;;4.43;48.35;100104.19;4878950;29;19971;-66
2022/03/13 09:46:11;;;;;;;;;;;;;;;4.33;48.65;100108.91;4897392;29;19943;-64
2022/03/13 09:48:37;;;;;;;;;;;;;;;4.60;47.86;100101.41;4895602;29;19932;-65
2022/03/13 09:51:04;;;;;;;;;;;;;;;4.68;48.54;100096.06;4897413;29;19934;-66
2022/03/13 09:53:33;;;;;;;;;;;;;;;4.66;48.41;100095.44;4895704;29;19946;-66
2022/03/13 09:56:01;;;;;;;;;;;;;;;4.70;48.17;100102.75;4895987;29;20051;-63
2022/03/13 09:58:28;;;;;;;;;;;;;;;4.72;47.51;100097.31;4896774;29;19938;-64
2022/03/13 10:00:53;;;;;;;;;;;;;;;4.55;48.28;100086.19;4896941;29;20419;-63
2022/03/13 10:03:19;;;;;;;;;;;;;;;4.70;48.25;100087.00;4896868;29;20038;-66
2022/03/13 10:05:46;;;;;;;;;;;;;;;4.63;48.84;100082.66;4896844;29;19927;-66
2022/03/13 10:08:12;;;;;;;;;;;;;;;4.64;48.71;100090.34;4895426;29;20315;-63
2022/03/13 10:10:43;;;;;;;;;;;;;;;4.48;48.60;100091.34;4897031;29;19927;-65
2022/03/13 10:13:09;;;;;;;;;;;;;;;4.34;49.65;100084.28;4864573;29;20038;-64
2022/03/13 10:15:48;;;;;;;;;;;;;;;4.20;50.25;100085.88;4864358;29;20435;-65
2022/03/13 10:18:17;;;;;;;;;;;;;;;4.35;49.94;100080.63;4897020;29;19938;-62
2022/03/13 10:20:43;;;;;;;;;;;;;;;4.45;48.96;100077.78;4879886;29;19970;-63
2022/03/13 10:23:11;;;;;;;;;;;;;;;4.57;48.94;100076.31;4884175;29;20478;-65
2022/03/13 10:25:40;;;;;;;;;;;;;;;4.51;49.20;100069.97;4896822;29;19928;-65
2022/03/13 10:28:19;;;;;;;;;;;;;;;4.53;49.44;100072.44;4896456;29;20021;-64
2022/03/13 10:30:47;;;;;;;;;;;;;;;4.53;49.08;100061.94;4896872;29;19967;-65
2022/03/13 10:33:13;;;;;;;;;;;;;;;4.58;49.70;100066.63;4895602;29;20313;-64
2022/03/13 10:35:38;;;;;;;;;;;;;;;4.68;48.36;100060.13;4895483;29;19928;-64
2022/03/13 10:38:14;;;;;;;;;;;;;;;4.68;48.53;100064.56;4896567;29;20000;-65
2022/03/13 10:40:48;;;;;;;;;;;;;;;4.45;49.45;100062.84;4879638;29;19931;-65
2022/03/13 10:43:19;;;;;;;;;;;;;;;4.50;49.33;100068.38;4896332;29;20397;-64
2022/03/13 10:45:51;;;;;;;;;;;;;;;4.41;49.21;100053.69;4896782;29;20365;-65
2022/03/13 10:48:21;;;;;;;;;;;;;;;4.48;49.73;100051.16;4896150;29;20297;-64
2022/03/13 10:50:51;;;;;;;;;;;;;;;4.53;49.29;100048.81;4904122;29;19927;-64
2022/03/13 10:53:18;;;;;;;;;;;;;;;4.55;49.88;100044.16;4905853;29;20040;-64
2022/03/13 10:55:44;;;;;;;;;;;;;;;4.40;49.18;100040.75;4906320;29;19954;-65
2022/03/13 10:58:10;;;;;;;;;;;;;;;4.33;49.47;100046.72;4898066;29;20401;-65
2022/03/13 11:00:36;;;;;;;;;;;;;;;4.27;50.19;100044.81;4904046;29;19943;-67
2022/03/13 11:03:12;;;;;;;;;;;;;;;4.22;50.33;100038.47;4889384;29;20354;-66
2022/03/13 11:05:38;;;;;;;;;;;;;;;4.19;50.70;100034.41;4905324;29;19983;-65
2022/03/13 11:08:04;;;;;;;;;;;;;;;4.23;50.25;100035.66;4904314;29;19938;-67
2022/03/13 11:10:30;;;;;;;;;;;;;;;4.23;50.79;100030.41;4905869;29;19927;-65
2022/03/13 11:12:57;;;;;;;;;;;;;;;4.22;50.77;100022.72;4905515;29;20182;-66
2022/03/13 11:15:27;;;;;;;;;;;;;;;4.28;50.56;100019.38;4905843;29;19934;-65
2022/03/13 11:17:54;;;;;;;;;;;;;;;4.35;50.28;100024.72;4913824;29;20385;-65
2022/03/13 11:20:20;;;;;;;;;;;;;;;4.29;50.56;100023.63;4893314;29;19969;-65
2022/03/13 11:22:45;;;;;;;;;;;;;;;4.22;50.66;100014.84;4906446;29;20396;-65
2022/03/13 11:25:11;;;;;;;;;;;;;;;4.13;51.15;100016.75;4901024;29;19928;-64
2022/03/13 11:27:37;;;;;;;;;;;;;;;4.16;50.85;100018.19;4896161;29;19938;-64
2022/03/13 11:30:05;;;;;;;;;;;;;;;4.37;50.95;100014.84;4910516;29;19927;-64
2022/03/13 11:32:31;;;;;;;;;;;;;;;4.33;51.09;100015.22;4914113;29;19937;-65
2022/03/13 11:35:15;;;;;;;;;;;;;;;4.48;50.59;100006.53;4901337;29;19939;-65
2022/03/13 11:37:42;;;;;;;;;;;;;;;4.92;49.35;100000.38;4917205;29;19931;-63
2022/03/13 11:40:08;;;;;;;;;;;;;;;5.21;48.46;100010.00;4918050;29;19927;-66
2022/03/13 11:42:49;;;;;;;;;;;;;;;5.12;48.06;100005.88;4918349;29;19970;-63
2022/03/13 11:45:31;;;;;;;;;;;;;;;5.34;47.91;99993.53;4918484;29;20349;-63
2022/03/13 11:48:19;;;;;;;;;;;;;;;5.51;48.17;99996.72;4888188;29;19935;-63
2022/03/13 11:50:48;;;;;;;;;;;;;;;5.67;47.71;99991.97;4916747;29;19979;-67
2022/03/13 11:53:18;;;;;;;;;;;;;;;5.82;47.07;99991.88;4917027;29;20018;-64
2022/03/13 11:56:02;;;;;;;;;;;;;;;5.79;47.43;99992.28;4918055;29;20377;-64
2022/03/13 11:58:46;;;;;;;;;;;;;;;5.85;46.43;99986.28;4917945;29;20317;-63
2022/03/13 12:01:16;;;;;;;;;;;;;;;5.83;47.27;99983.00;4917897;29;20021;-63
2022/03/13 12:04:00;;;;;;;;;;;;;;;5.90;46.68;99975.16;4917968;29;20424;-64
2022/03/13 12:06:42;;;;;;;;;;;;;;;5.94;46.73;99976.41;4917966;29;19992;-64
2022/03/13 12:09:08;;;;;;;;;;;;;;;6.10;46.36;99975.31;4916965;29;19966;-63
2022/03/13 12:11:54;;;;;;;;;;;;;;;6.08;46.91;99966.78;4917538;29;20441;-60
2022/03/13 12:14:20;;;;;;;;;;;;;;;6.10;46.95;99968.22;4892881;29;20473;-63
2022/03/13 12:16:46;;;;;;;;;;;;;;;6.11;46.81;99969.84;4907468;29;19928;-63
2022/03/13 12:19:12;;;;;;;;;;;;;;;6.09;46.48;99971.88;4882261;29;19931;-64
2022/03/13 12:21:42;;;;;;;;;;;;;;;5.96;46.85;99971.78;4917862;29;19927;-63
2022/03/13 12:24:18;;;;;;;;;;;;;;;5.98;46.91;99974.22;4908355;29;19932;-64
2022/03/13 12:26:44;;;;;;;;;;;;;;;5.89;47.34;99963.81;4908554;29;20362;-64
2022/03/13 12:29:17;;;;;;;;;;;;;;;5.78;47.57;99966.16;4907436;29;19935;-63
2022/03/13 12:31:46;;;;;;;;;;;;;;;5.61;48.20;99955.91;4907645;29;20385;-65
2022/03/13 12:34:12;;;;;;;;;;;;;;;5.59;48.27;99957.13;4905974;29;19931;-65
2022/03/13 12:36:38;;;;;;;;;;;;;;;5.53;48.21;99956.09;4907388;29;20416;-64
2022/03/13 12:39:11;;;;;;;;;;;;;;;5.47;48.71;99962.06;4912047;29;19963;-66
2022/03/13 12:41:39;;;;;;;;;;;;;;;5.50;49.17;99959.09;4917444;29;19985;-65
2022/03/13 12:44:05;;;;;;;;;;;;;;;5.24;49.22;99954.41;4916633;29;19931;-67